createdAt,value
2023-05-20T00:00:09.731Z,100.00
2023-05-20T00:02:38.633Z,100.00
2023-05-20T00:05:08.230Z,100.00
2023-05-20T00:07:37.066Z,100.00
2023-05-20T00:10:06.296Z,100.00
2023-05-20T00:12:35.330Z,100.00
2023-05-20T00:15:03.983Z,100.00
2023-05-20T00:17:32.949Z,100.00
2023-05-20T00:20:01.609Z,100.00
2023-05-20T00:22:30.194Z,100.00
2023-05-20T00:24:58.866Z,100.00
2023-05-20T00:27:30.266Z,100.00
2023-05-20T00:29:59.073Z,100.00
2023-05-20T00:32:27.812Z,100.00
2023-05-20T00:35:00.570Z,100.00
2023-05-20T00:37:29.970Z,100.00
2023-05-20T00:40:00.851Z,100.00
2023-05-20T00:42:30.641Z,100.00
2023-05-20T00:44:59.421Z,100.00
2023-05-20T00:47:31.440Z,100.00
2023-05-20T00:50:01.508Z,100.00
2023-05-20T00:52:32.651Z,100.00
2023-05-20T00:55:01.748Z,100.00
2023-05-20T00:57:30.984Z,100.00
2023-05-20T00:59:59.874Z,100.00
2023-05-20T01:02:29.726Z,100.00
2023-05-20T01:04:59.746Z,100.00
2023-05-20T01:07:28.653Z,100.00
2023-05-20T01:09:57.371Z,100.00
2023-05-20T01:12:29.740Z,100.00
2023-05-20T01:15:01.804Z,100.00
2023-05-20T01:17:33.313Z,100.00
2023-05-20T01:20:02.631Z,100.00
2023-05-20T01:22:32.329Z,100.00
2023-05-20T01:25:02.721Z,100.00
2023-05-20T01:27:31.619Z,100.00
2023-05-20T01:30:00.911Z,100.00
2023-05-20T01:32:44.752Z,100.00
2023-05-20T01:35:16.870Z,100.00
2023-05-20T01:37:46.577Z,100.00
2023-05-20T01:40:17.176Z,100.00
2023-05-20T01:42:50.527Z,100.00
2023-05-20T01:45:19.485Z,100.00
2023-05-20T01:47:48.735Z,100.00
2023-05-20T01:50:17.701Z,100.00
2023-05-20T01:52:46.396Z,100.00
2023-05-20T01:55:15.139Z,100.00
2023-05-20T01:57:44.015Z,100.00
2023-05-20T02:00:13.449Z,100.00
2023-05-20T02:02:42.386Z,100.00
2023-05-20T02:05:11.619Z,100.00
2023-05-20T02:07:40.260Z,100.00
2023-05-20T02:10:09.658Z,100.00
2023-05-20T02:12:38.758Z,100.00
2023-05-20T02:15:08.309Z,100.00
2023-05-20T02:17:37.378Z,100.00
2023-05-20T02:20:07.941Z,100.00
2023-05-20T02:22:36.979Z,100.00
2023-05-20T02:25:06.289Z,100.00
2023-05-20T02:27:35.136Z,100.00
2023-05-20T02:30:03.847Z,100.00
2023-05-20T02:32:33.889Z,100.00
2023-05-20T02:35:02.647Z,100.00
2023-05-20T02:37:31.491Z,100.00
2023-05-20T02:40:00.901Z,100.00
2023-05-20T02:42:29.661Z,100.00
2023-05-20T02:44:59.024Z,100.00
2023-05-20T02:47:28.517Z,100.00
2023-05-20T02:50:00.159Z,100.00
2023-05-20T02:52:28.786Z,100.00
2023-05-20T02:54:57.717Z,100.00
2023-05-20T02:57:28.462Z,100.00
2023-05-20T02:59:59.059Z,100.00
2023-05-20T03:02:27.736Z,100.00
2023-05-20T03:04:56.547Z,100.00
2023-05-20T03:07:25.395Z,100.00
2023-05-20T03:09:54.102Z,100.00
2023-05-20T03:12:22.911Z,100.00
2023-05-20T03:14:53.451Z,100.00
2023-05-20T03:17:22.900Z,100.00
2023-05-20T03:19:51.601Z,100.00
2023-05-20T03:22:49.850Z,100.00
2023-05-20T03:25:18.631Z,100.00
2023-05-20T03:27:47.441Z,100.00
2023-05-20T03:30:16.085Z,100.00
2023-05-20T03:32:44.945Z,100.00
2023-05-20T03:35:14.031Z,100.00
2023-05-20T03:37:42.921Z,100.00
2023-05-20T03:40:12.265Z,100.00
2023-05-20T03:42:41.565Z,100.00
2023-05-20T03:45:12.282Z,100.00
2023-05-20T03:47:45.726Z,100.00
2023-05-20T03:50:17.933Z,100.00
2023-05-20T03:52:46.553Z,100.00
2023-05-20T03:55:15.362Z,100.00
2023-05-20T03:57:45.529Z,100.00
2023-05-20T04:00:14.690Z,100.00
2023-05-20T04:02:44.998Z,100.00
2023-05-20T04:05:14.097Z,100.00
2023-05-20T04:07:46.713Z,100.00
2023-05-20T04:10:15.525Z,100.00
2023-05-20T04:12:44.257Z,100.00
2023-05-20T04:15:13.601Z,100.00
2023-05-20T04:17:43.166Z,100.00
2023-05-20T04:20:12.609Z,100.00
2023-05-20T04:22:41.487Z,100.00
2023-05-20T04:25:10.308Z,100.00
2023-05-20T04:27:39.814Z,100.00
2023-05-20T04:30:10.076Z,100.00
2023-05-20T04:32:38.935Z,100.00
2023-05-20T04:35:12.440Z,100.00
2023-05-20T04:37:42.649Z,100.00
2023-05-20T04:40:15.858Z,100.00
2023-05-20T04:42:45.037Z,100.00
2023-05-20T04:45:14.167Z,100.00
2023-05-20T04:47:44.527Z,100.00
2023-05-20T04:50:18.951Z,100.00
2023-05-20T04:52:51.903Z,100.00
2023-05-20T04:55:21.782Z,100.00
2023-05-20T04:57:50.720Z,100.00
2023-05-20T05:00:19.537Z,100.00
2023-05-20T05:02:48.322Z,100.00
2023-05-20T05:05:17.089Z,100.00
2023-05-20T05:07:45.814Z,100.00
2023-05-20T05:10:15.886Z,100.00
2023-05-20T05:12:45.184Z,100.00
2023-05-20T05:15:13.886Z,100.00
2023-05-20T05:17:42.623Z,100.00
2023-05-20T05:20:11.859Z,100.00
2023-05-20T05:22:41.776Z,100.00
2023-05-20T05:25:11.758Z,100.00
2023-05-20T05:27:41.077Z,100.00
2023-05-20T05:30:10.449Z,100.00
2023-05-20T05:32:39.472Z,100.00
2023-05-20T05:35:08.593Z,100.00
2023-05-20T05:37:37.262Z,100.00
2023-05-20T05:40:07.237Z,100.00
2023-05-20T05:42:36.020Z,100.00
2023-05-20T05:45:04.880Z,100.00
2023-05-20T05:47:33.648Z,100.00
2023-05-20T05:50:02.448Z,100.00
2023-05-20T05:52:31.242Z,100.00
2023-05-20T05:55:00.196Z,100.00
2023-05-20T05:57:28.987Z,100.00
2023-05-20T05:59:57.688Z,100.00
2023-05-20T06:02:26.700Z,100.00
2023-05-20T06:04:57.190Z,100.00
2023-05-20T06:07:28.723Z,100.00
2023-05-20T06:09:58.919Z,100.00
2023-05-20T06:12:27.612Z,100.00
2023-05-20T06:14:56.430Z,100.00
2023-05-20T06:17:27.649Z,100.00
2023-05-20T06:19:59.414Z,100.00
2023-05-20T06:22:28.852Z,100.00
2023-05-20T06:25:00.965Z,100.00
2023-05-20T06:27:29.722Z,100.00
2023-05-20T06:29:58.392Z,100.00
2023-05-20T06:32:30.290Z,100.00
2023-05-20T06:38:00.773Z,100.00
2023-05-20T06:40:30.128Z,100.00
2023-05-20T06:45:51.437Z,100.00
2023-05-20T06:48:20.048Z,100.00
2023-05-20T06:50:50.203Z,100.00
2023-05-20T06:53:19.170Z,100.00
2023-05-20T06:55:59.952Z,100.00
2023-05-20T06:58:29.521Z,100.00
2023-05-20T07:00:59.745Z,100.00
2023-05-20T07:03:28.469Z,100.00
2023-05-20T07:06:10.649Z,100.00
2023-05-20T07:08:41.305Z,100.00
2023-05-20T07:11:09.892Z,100.00
2023-05-20T07:13:39.488Z,100.00
2023-05-20T07:16:08.352Z,100.00
2023-05-20T07:18:37.091Z,100.00
2023-05-20T07:21:05.724Z,100.00
2023-05-20T07:23:34.562Z,100.00
2023-05-20T07:26:03.336Z,100.00
2023-05-20T07:28:37.328Z,100.00
2023-05-20T07:31:05.990Z,99.22
2023-05-20T07:33:36.784Z,87.01
2023-05-20T07:36:09.103Z,86.60
2023-05-20T07:38:37.046Z,61.75
2023-05-20T07:41:06.720Z,59.68
2023-05-20T07:43:36.621Z,60.79
2023-05-20T07:46:05.964Z,59.46
2023-05-20T07:48:34.835Z,58.86
2023-05-20T07:51:05.341Z,57.95
2023-05-20T07:53:35.772Z,52.77
2023-05-20T07:56:04.858Z,51.56
2023-05-20T07:58:33.796Z,51.72
2023-05-20T08:01:05.072Z,51.50
2023-05-20T08:03:35.245Z,52.36
2023-05-20T08:06:06.203Z,51.80
2023-05-20T08:08:36.349Z,52.23
2023-05-20T08:11:05.266Z,52.69
2023-05-20T08:13:34.326Z,53.02
2023-05-20T08:16:06.262Z,52.57
2023-05-20T08:18:38.170Z,52.11
2023-05-20T08:21:11.119Z,53.42
2023-05-20T08:23:40.647Z,53.53
2023-05-20T08:26:09.503Z,52.37
2023-05-20T08:28:38.419Z,53.09
2023-05-20T08:31:08.993Z,52.63
2023-05-20T08:33:37.744Z,53.21
2023-05-20T08:36:06.719Z,52.63
2023-05-20T08:38:36.605Z,53.79
2023-05-20T08:41:07.503Z,53.91
2023-05-20T08:43:41.261Z,53.52
2023-05-20T08:46:11.717Z,53.48
2023-05-20T08:48:41.029Z,55.54
2023-05-20T08:51:11.565Z,53.58
2023-05-20T08:53:41.690Z,54.12
2023-05-20T08:56:12.677Z,54.42
2023-05-20T08:58:43.179Z,53.62
2023-05-20T09:01:12.019Z,53.11
2023-05-20T09:03:40.668Z,54.25
2023-05-20T09:06:11.148Z,49.86
2023-05-20T09:08:42.317Z,51.12
2023-05-20T09:11:17.824Z,51.38
2023-05-20T09:13:46.539Z,51.74
2023-05-20T09:16:17.442Z,51.40
2023-05-20T09:21:45.441Z,52.09
2023-05-20T09:24:16.900Z,52.89
2023-05-20T09:29:59.093Z,54.12
2023-05-20T09:32:34.334Z,53.06
2023-05-20T09:35:18.512Z,54.20
2023-05-20T09:38:02.794Z,52.53
2023-05-20T09:40:36.905Z,51.60
2023-05-20T09:43:17.225Z,53.23
2023-05-20T09:45:54.337Z,50.59
2023-05-20T09:48:55.735Z,51.75
2023-05-20T09:51:35.450Z,50.55
2023-05-20T09:54:08.410Z,49.28
2023-05-20T10:05:38.200Z,49.47
2023-05-20T10:08:27.153Z,49.05
2023-05-20T10:11:31.399Z,47.41
2023-05-20T10:14:36.571Z,45.76
2023-05-20T10:17:43.459Z,45.42
2023-05-20T10:20:19.376Z,45.27
2023-05-20T10:23:01.704Z,45.55
2023-05-20T10:28:48.010Z,43.82
2023-05-20T10:31:44.786Z,44.77
2023-05-20T10:34:20.001Z,43.87
2023-05-20T10:36:57.830Z,42.99
2023-05-20T10:39:34.769Z,42.45
2023-05-20T10:42:10.537Z,43.11
2023-05-20T10:44:53.928Z,43.98
2023-05-20T10:47:25.892Z,42.88
2023-05-20T10:49:58.821Z,42.43
2023-05-20T10:52:27.857Z,43.05
2023-05-20T10:55:09.881Z,42.17
2023-05-20T10:57:42.906Z,42.40
2023-05-20T11:00:13.340Z,42.32
2023-05-20T11:02:43.017Z,43.11
2023-05-20T11:05:14.786Z,43.23
2023-05-20T11:07:43.754Z,43.36
2023-05-20T11:10:13.884Z,43.38
2023-05-20T11:12:42.795Z,42.55
2023-05-20T11:15:13.522Z,43.61
2023-05-20T11:17:56.224Z,44.37
2023-05-20T11:20:31.762Z,45.63
2023-05-20T11:23:00.441Z,46.49
2023-05-20T11:25:33.961Z,45.27
2023-05-20T11:28:02.831Z,45.92
2023-05-20T11:30:33.432Z,46.11
2023-05-20T11:33:05.637Z,44.36
2023-05-20T11:35:34.399Z,43.93
2023-05-20T11:38:05.072Z,43.21
2023-05-20T11:40:46.258Z,44.14
2023-05-20T11:43:05.971Z,44.52
2023-05-20T11:45:46.348Z,44.73
2023-05-20T11:48:16.567Z,45.17
2023-05-20T11:50:48.223Z,44.95
2023-05-20T11:53:19.152Z,45.02
2023-05-20T11:55:52.222Z,44.94
2023-05-20T11:58:29.514Z,43.34
2023-05-20T12:01:05.787Z,43.83
2023-05-20T12:03:29.363Z,43.81
2023-05-20T12:05:58.160Z,43.30
2023-05-20T12:08:26.892Z,44.53
2023-05-20T12:10:56.289Z,42.32
2023-05-20T12:13:25.061Z,42.79
2023-05-20T12:15:54.126Z,43.58
2023-05-20T12:18:24.168Z,43.73
2023-05-20T12:20:52.854Z,44.85
2023-05-20T12:23:21.748Z,45.72
2023-05-20T12:25:50.480Z,44.68
2023-05-20T12:28:19.624Z,44.76
2023-05-20T12:30:48.336Z,44.75
2023-05-20T12:33:16.981Z,42.80
2023-05-20T12:35:46.842Z,42.80
2023-05-20T12:38:15.588Z,43.43
2023-05-20T12:40:44.406Z,44.90
2023-05-20T12:43:13.146Z,44.40
2023-05-20T12:45:41.986Z,43.81
2023-05-20T12:48:12.284Z,42.51
2023-05-20T12:50:41.292Z,42.07
2023-05-20T12:53:10.191Z,42.22
2023-05-20T12:55:39.601Z,41.21
2023-05-20T12:58:11.329Z,42.79
2023-05-20T13:00:40.093Z,43.48
2023-05-20T13:03:09.230Z,44.24
2023-05-20T13:05:37.965Z,43.73
2023-05-20T13:08:08.560Z,43.84
2023-05-20T13:10:38.132Z,44.27
2023-05-20T13:13:07.137Z,43.80
2023-05-20T13:15:36.962Z,43.88
2023-05-20T13:18:09.552Z,43.79
2023-05-20T13:20:38.958Z,43.15
2023-05-20T13:23:08.316Z,42.02
2023-05-20T13:25:37.143Z,43.47
2023-05-20T13:28:07.682Z,44.59
2023-05-20T13:30:36.841Z,45.02
2023-05-20T13:33:05.863Z,44.08
2023-05-20T13:35:34.943Z,44.99
2023-05-20T13:38:03.675Z,44.21
2023-05-20T13:40:32.476Z,44.27
2023-05-20T13:43:01.398Z,46.52
2023-05-20T13:45:30.094Z,47.37
2023-05-20T13:48:14.741Z,48.71
2023-05-20T13:50:43.590Z,48.07
2023-05-20T13:53:14.014Z,47.93
2023-05-20T13:55:44.214Z,47.65
2023-05-20T13:58:12.864Z,48.50
2023-05-20T14:00:41.657Z,48.50
2023-05-20T14:03:10.614Z,48.92
2023-05-20T14:05:40.857Z,48.56
2023-05-20T14:08:09.668Z,47.10
2023-05-20T14:10:38.420Z,47.61
2023-05-20T14:13:11.965Z,47.18
2023-05-20T14:15:43.563Z,46.95
2023-05-20T14:18:12.385Z,44.26
2023-05-20T14:20:42.733Z,41.27
2023-05-20T14:23:11.516Z,39.07
2023-05-20T14:25:45.410Z,40.89
2023-05-20T14:28:14.173Z,43.01
2023-05-20T14:30:42.904Z,44.24
2023-05-20T14:33:11.725Z,45.81
2023-05-20T14:35:42.990Z,45.34
2023-05-20T14:38:11.815Z,46.14
2023-05-20T14:40:40.471Z,48.71
2023-05-20T14:43:09.166Z,51.02
2023-05-20T14:45:37.833Z,51.44
2023-05-20T14:48:07.095Z,51.34
2023-05-20T14:50:36.236Z,51.40
2023-05-20T14:53:05.640Z,52.24
2023-05-20T14:55:34.377Z,52.26
2023-05-20T14:58:03.189Z,52.76
2023-05-20T15:00:33.073Z,53.18
2023-05-20T15:03:02.359Z,53.18
2023-05-20T15:05:34.048Z,54.60
2023-05-20T15:08:02.782Z,54.18
2023-05-20T15:10:31.551Z,54.03
2023-05-20T15:13:00.236Z,53.98
2023-05-20T15:15:29.222Z,55.61
2023-05-20T15:17:57.957Z,55.73
2023-05-20T15:20:26.964Z,55.13
2023-05-20T15:22:56.166Z,54.60
2023-05-20T15:25:25.156Z,55.24
2023-05-20T15:27:54.196Z,54.60
2023-05-20T15:30:23.084Z,54.49
2023-05-20T15:32:54.941Z,52.51
2023-05-20T15:35:25.411Z,53.21
2023-05-20T15:37:54.841Z,50.64
2023-05-20T15:40:27.072Z,48.54
2023-05-20T15:42:57.427Z,45.78
2023-05-20T15:45:30.131Z,43.55
2023-05-20T15:48:09.758Z,42.78
2023-05-20T15:50:42.252Z,43.51
2023-05-20T15:53:14.597Z,44.59
2023-05-20T15:55:45.231Z,46.23
2023-05-20T15:58:17.024Z,47.87
2023-05-20T16:00:46.111Z,49.54
2023-05-20T16:03:24.750Z,50.96
2023-05-20T16:06:03.487Z,51.95
2023-05-20T16:08:48.760Z,51.34
2023-05-20T16:11:22.324Z,51.24
2023-05-20T16:14:03.432Z,47.86
2023-05-20T16:16:43.023Z,45.50
2023-05-20T16:19:15.158Z,44.10
2023-05-20T16:21:48.999Z,44.35
2023-05-20T16:24:48.635Z,45.65
2023-05-20T16:27:43.592Z,48.01
2023-05-20T16:34:59.857Z,52.53
2023-05-20T16:39:43.492Z,55.77
2023-05-20T16:42:38.584Z,54.41
2023-05-20T16:48:10.181Z,55.79
2023-05-20T16:51:00.761Z,56.90
2023-05-20T16:54:05.150Z,57.43
2023-05-20T16:56:16.880Z,57.43
2023-05-20T16:58:53.194Z,57.76
2023-05-20T17:01:26.543Z,60.11
2023-05-20T17:04:01.425Z,59.53
2023-05-20T17:06:33.800Z,60.10
2023-05-20T17:09:04.896Z,61.38
2023-05-20T17:11:42.840Z,61.78
2023-05-20T17:14:29.527Z,62.40
2023-05-20T17:17:05.838Z,62.98
2023-05-20T17:19:44.421Z,63.43
2023-05-20T17:34:50.096Z,65.78
2023-05-20T17:37:20.520Z,65.51
2023-05-20T17:40:02.006Z,64.49
2023-05-20T17:42:31.032Z,65.79
2023-05-20T17:45:10.772Z,65.97
2023-05-20T17:47:44.372Z,66.44
2023-05-20T17:50:16.765Z,66.50
2023-05-20T17:52:45.674Z,66.28
2023-05-20T17:55:22.715Z,65.06
2023-05-20T17:58:02.092Z,64.07
2023-05-20T18:00:34.384Z,63.68
2023-05-20T18:03:16.316Z,64.53
2023-05-20T18:05:52.760Z,65.99
2023-05-20T18:08:29.374Z,66.42
2023-05-20T18:11:04.640Z,66.78
2023-05-20T18:13:41.424Z,66.87
2023-05-20T18:16:24.790Z,66.68
2023-05-20T18:18:54.583Z,66.76
2023-05-20T18:21:24.503Z,66.84
2023-05-20T18:23:54.884Z,66.43
2023-05-20T18:26:23.806Z,66.67
2023-05-20T18:29:09.180Z,66.17
2023-05-20T18:31:28.826Z,66.60
2023-05-20T18:33:57.586Z,66.85
2023-05-20T18:36:27.650Z,67.16
2023-05-20T18:38:56.593Z,67.86
2023-05-20T18:41:32.429Z,67.79
2023-05-20T18:44:01.563Z,67.24
2023-05-20T18:46:31.248Z,67.94
2023-05-20T18:49:04.133Z,67.92
2023-05-20T18:51:39.997Z,68.21
2023-05-20T18:54:10.182Z,68.53
2023-05-20T18:56:44.487Z,67.19
2023-05-20T18:59:25.070Z,68.24
2023-05-20T19:01:53.520Z,68.32
2023-05-20T19:04:26.758Z,68.74
2023-05-20T19:06:55.465Z,68.96
2023-05-20T19:09:24.262Z,69.54
2023-05-20T19:12:01.763Z,69.36
2023-05-20T19:14:50.022Z,69.73
2023-05-20T19:17:21.463Z,70.40
2023-05-20T19:19:53.148Z,70.49
2023-05-20T19:22:40.062Z,71.98
2023-05-20T19:25:12.415Z,73.61
2023-05-20T19:27:43.144Z,75.61
2023-05-20T19:30:20.287Z,75.96
2023-05-20T19:32:49.149Z,77.85
2023-05-20T19:35:25.797Z,78.70
2023-05-20T19:37:56.876Z,79.50
2023-05-20T19:40:26.000Z,80.70
2023-05-20T19:42:57.529Z,83.58
2023-05-20T19:45:31.038Z,88.52
2023-05-20T19:48:04.979Z,95.55
2023-05-20T19:50:33.925Z,100.00
2023-05-20T19:53:04.343Z,100.00
2023-05-20T19:55:36.280Z,100.00
2023-05-20T19:58:05.404Z,100.00
2023-05-20T20:00:38.989Z,100.00
2023-05-20T20:03:51.614Z,100.00
2023-05-20T20:06:21.304Z,100.00
2023-05-20T20:08:50.016Z,100.00
2023-05-20T20:11:19.882Z,100.00
2023-05-20T20:13:50.201Z,100.00
2023-05-20T20:16:23.119Z,100.00
2023-05-20T20:18:55.295Z,100.00
2023-05-20T20:21:25.793Z,100.00
2023-05-20T20:23:56.944Z,100.00
2023-05-20T20:26:30.228Z,100.00
2023-05-20T20:28:59.097Z,100.00
2023-05-20T20:31:29.288Z,100.00
2023-05-20T20:33:59.591Z,100.00
2023-05-20T20:36:32.246Z,100.00
2023-05-20T20:39:02.793Z,100.00
2023-05-20T20:41:32.309Z,100.00
2023-05-20T20:44:05.728Z,100.00
2023-05-20T20:46:34.430Z,100.00
2023-05-20T20:49:05.853Z,100.00
2023-05-20T20:51:34.539Z,100.00
2023-05-20T20:54:03.519Z,100.00
2023-05-20T20:56:33.982Z,100.00
2023-05-20T20:59:03.441Z,100.00
2023-05-20T21:01:34.636Z,100.00
2023-05-20T21:04:07.018Z,100.00
2023-05-20T21:06:37.444Z,100.00
2023-05-20T21:09:11.263Z,100.00
2023-05-20T21:11:42.028Z,100.00
2023-05-20T21:14:14.679Z,100.00
2023-05-20T21:16:46.858Z,100.00
2023-05-20T21:19:22.978Z,100.00
2023-05-20T21:21:57.689Z,100.00
2023-05-20T21:24:41.297Z,100.00
2023-05-20T21:27:16.424Z,100.00
2023-05-20T21:29:56.462Z,100.00
2023-05-20T21:32:25.739Z,100.00
2023-05-20T21:35:00.919Z,100.00
2023-05-20T21:40:53.508Z,100.00
2023-05-20T21:43:24.123Z,100.00
2023-05-20T21:46:03.522Z,100.00
2023-05-20T21:48:54.067Z,100.00
2023-05-20T21:51:32.375Z,100.00
2023-05-20T21:54:04.312Z,100.00
2023-05-20T21:57:18.920Z,100.00
2023-05-20T21:59:56.340Z,100.00
2023-05-20T22:02:43.388Z,100.00
2023-05-20T22:08:30.231Z,100.00
2023-05-20T22:11:05.495Z,100.00
2023-05-20T22:13:40.601Z,100.00
2023-05-20T22:16:18.827Z,100.00
2023-05-20T22:19:32.359Z,100.00
2023-05-20T22:21:49.691Z,100.00
2023-05-20T22:24:32.886Z,100.00
2023-05-20T22:27:05.726Z,100.00
2023-05-20T22:29:36.286Z,100.00
2023-05-20T22:32:05.828Z,100.00
2023-05-20T22:34:35.003Z,100.00
2023-05-20T22:37:04.732Z,100.00
2023-05-20T22:39:35.858Z,100.00
2023-05-20T22:42:09.115Z,100.00
2023-05-20T22:44:38.244Z,100.00
2023-05-20T22:49:58.047Z,100.00
2023-05-20T22:52:29.008Z,100.00
2023-05-20T22:55:00.705Z,100.00
2023-05-20T22:57:30.349Z,100.00
2023-05-20T23:00:00.536Z,100.00
2023-05-20T23:02:30.952Z,100.00
2023-05-20T23:05:08.458Z,100.00
2023-05-20T23:07:42.673Z,100.00
2023-05-20T23:10:12.372Z,100.00
2023-05-20T23:12:48.430Z,100.00
2023-05-20T23:15:25.362Z,100.00
2023-05-20T23:18:05.096Z,100.00
2023-05-20T23:20:37.421Z,100.00
2023-05-20T23:23:11.162Z,100.00
2023-05-20T23:25:42.406Z,100.00
2023-05-20T23:28:15.885Z,100.00
2023-05-20T23:30:50.864Z,100.00
2023-05-20T23:33:26.052Z,100.00
2023-05-20T23:35:54.840Z,100.00
2023-05-20T23:38:23.731Z,100.00
2023-05-20T23:40:52.532Z,100.00
2023-05-20T23:43:22.362Z,100.00
2023-05-20T23:45:51.303Z,100.00
2023-05-20T23:48:20.024Z,100.00
2023-05-20T23:50:49.127Z,100.00
2023-05-20T23:53:17.773Z,100.00
2023-05-20T23:55:48.236Z,100.00
2023-05-20T23:58:17.013Z,100.00
